Stations météo

réclame
Mon MeteoGroup
Ecija, Espagne (8395): Température de l'air & dewpoint: 14.06.2018 07:00:00 - 20.06.2018 07:00:00 (CEST)Ecija, Espagne (8395): Vitesse du vent & gusts: 14.06.2018 07:00:00 - 20.06.2018 07:00:00 (CEST)Ecija, Espagne (8395): Direction du vent: 14.06.2018 07:00:00 - 20.06.2018 07:00:00 (CEST)Ecija, Espagne (8395): reduced air pressure: 14.06.2018 07:00:00 - 20.06.2018 07:00:00 (CEST)Ecija, Espagne (8395): Quantités de précipitations: 14.06.2018 07:00:00 - 20.06.2018 07:00:00 (CEST)
Date & Time tt [°C] td [°C] ff [km/h] ff [knt] fx [km/h] fx [knt] dd ppp [hPa] rr [mm]
20.06.2018 07:00:00 19,2 12,6 5 3 21 11 SSE 1017,4 0,0
20.06.2018 06:00:00 19,9 12,8 6 3 - - S 1017,2 -
20.06.2018 05:00:00 21,3 13,8 15 8 32 17 S 1016,9 0,0
20.06.2018 04:00:00 21,5 13,7 18 10 28 15 S 1016,8 0,0
20.06.2018 03:00:00 21,4 13,6 14 8 27 15 S 1016,9 0,0
20.06.2018 02:00:00 22,0 13,4 19 11 26 14 SSW 1017,0 -
20.06.2018 01:00:00 22,2 13,3 16 8 26 14 SSW 1016,8 0,0
20.06.2018 00:00:00 22,9 13,1 16 9 25 13 S 1016,8 0,0
19.06.2018 23:00:00 23,8 12,7 18 10 28 15 S 1016,7 0,0
19.06.2018 22:00:00 25,2 12,1 14 8 30 16 S 1016,3 0,0
19.06.2018 21:00:00 27,7 12,8 17 9 38 20 S 1015,9 0,0
19.06.2018 20:00:00 30,0 13,3 20 11 36 19 S 1015,5 -
19.06.2018 19:00:00 31,8 14,0 26 14 35 19 S 1015,1 0,0
19.06.2018 18:00:00 32,8 14,4 23 12 38 21 S 1015,1 0,0
19.06.2018 17:00:00 32,5 14,1 24 13 43 23 S 1015,7 0,0
19.06.2018 16:00:00 33,2 15,3 25 14 42 23 S 1016,1 0,0
19.06.2018 15:00:00 32,8 14,9 26 14 40 22 S 1016,3 0,0
19.06.2018 14:00:00 32,8 15,3 21 12 31 17 S 1017,1 -
19.06.2018 13:00:00 32,0 15,5 16 8 32 18 S 1017,5 0,0
19.06.2018 12:00:00 30,6 15,9 4 2 18 10 SSE 1018,0 0,0
19.06.2018 11:00:00 28,9 15,4 3 2 16 9 ESE 1018,3 0,0
19.06.2018 10:00:00 26,4 14,8 3 1 8 4 ENE 1018,8 0,0
19.06.2018 09:00:00 22,0 13,9 6 4 10 5 SSE 1019,1 0,0
19.06.2018 08:00:00 20,6 12,5 0 0 19 11 N 1018,8 -
19.06.2018 07:00:00 21,3 11,9 13 7 24 13 SSW 1018,5 0,0
19.06.2018 06:00:00 21,1 12,7 11 6 16 9 WSW 1018,0 0,0
19.06.2018 05:00:00 21,8 14,2 8 5 16 9 SW 1018,0 0,0
19.06.2018 04:00:00 19,9 15,5 5 3 15 8 NW 1017,8 0,0
19.06.2018 03:00:00 21,3 16,0 13 7 20 11 SW 1017,9 0,0
19.06.2018 02:00:00 21,7 15,8 8 4 16 9 SW 1018,0 -
19.06.2018 01:00:00 - - - - - - - - -
19.06.2018 00:00:00 24,1 15,1 10 5 16 9 SW 1017,7 0,0
18.06.2018 23:00:00 26,0 15,3 9 5 32 17 SSW 1016,5 0,0
18.06.2018 22:00:00 27,8 16,1 19 11 35 19 W 1015,4 0,0
18.06.2018 21:00:00 32,1 16,8 18 10 33 18 WSW 1014,2 0,0
18.06.2018 20:00:00 35,9 16,1 15 8 24 13 S 1013,5 -
18.06.2018 19:00:00 37,2 16,7 12 6 22 12 ESE 1013,5 0,0
18.06.2018 18:00:00 38,2 18,1 5 3 16 9 WNW 1013,7 0,0
18.06.2018 17:00:00 37,5 17,5 10 5 18 10 ENE 1014,2 0,0
18.06.2018 16:00:00 37,3 17,9 4 2 19 10 ESE 1014,7 0,0
18.06.2018 15:00:00 36,3 17,5 7 4 19 11 ENE 1015,4 0,0
18.06.2018 14:00:00 35,3 17,5 5 3 19 11 SSE 1016,0 -
18.06.2018 13:00:00 33,7 16,6 5 3 19 10 E 1017,0 0,0
18.06.2018 12:00:00 31,8 16,6 7 4 16 8 E 1017,4 0,0
18.06.2018 11:00:00 29,4 16,2 6 4 11 6 E 1017,7 0,0
18.06.2018 10:00:00 26,6 14,7 3 2 11 6 E 1018,2 0,0
18.06.2018 09:00:00 23,7 13,6 3 2 6 3 E 1018,2 0,0
18.06.2018 08:00:00 20,1 11,3 3 2 5 3 SSE 1018,5 -
18.06.2018 07:00:00 19,1 10,4 0 0 7 4 SE 1018,4 0,0
18.06.2018 06:00:00 19,8 10,5 1 0 11 6 W 1018,1 0,0
18.06.2018 05:00:00 21,6 11,3 11 6 18 10 SW 1017,6 0,0
18.06.2018 04:00:00 20,9 10,0 5 3 14 7 S 1018,2 0,0
18.06.2018 03:00:00 21,7 10,5 9 5 13 7 SSW 1017,9 0,0
18.06.2018 02:00:00 23,3 10,6 1 1 9 5 SSE 1017,3 -
18.06.2018 01:00:00 23,8 10,2 3 1 8 5 S 1017,4 0,0
18.06.2018 00:00:00 25,5 10,2 6 4 28 15 S 1017,5 0,0
17.06.2018 23:00:00 27,8 10,9 18 10 24 13 SW 1016,9 0,0
17.06.2018 22:00:00 29,8 11,8 15 8 20 11 SSW 1016,0 0,0
17.06.2018 21:00:00 34,0 14,5 10 5 17 9 SSW 1015,3 0,0
17.06.2018 20:00:00 37,1 16,6 4 2 13 7 S 1014,9 -
17.06.2018 19:00:00 37,1 17,1 4 2 17 9 SE 1014,7 0,0
17.06.2018 18:00:00 37,2 17,8 3 2 13 7 N 1015,0 0,0
17.06.2018 17:00:00 36,8 17,9 5 3 16 9 S 1015,2 0,0
17.06.2018 16:00:00 36,2 17,4 3 1 13 7 S 1015,7 0,0
17.06.2018 15:00:00 34,6 16,9 5 3 14 8 SE 1016,0 0,0
17.06.2018 14:00:00 33,3 16,6 3 1 16 9 W 1016,6 -
17.06.2018 13:00:00 31,2 16,0 4 2 13 7 NNW 1016,9 0,0
17.06.2018 12:00:00 30,1 16,1 3 2 11 6 SE 1017,2 0,0
17.06.2018 11:00:00 28,1 16,4 4 2 9 5 E 1017,5 0,0
17.06.2018 10:00:00 25,3 16,1 3 2 9 5 SE 1017,4 0,0
17.06.2018 09:00:00 22,0 14,6 4 2 6 4 ESE 1017,6 0,0
17.06.2018 08:00:00 19,0 13,4 2 1 6 3 SE 1017,2 -
17.06.2018 07:00:00 17,5 12,2 2 1 6 3 S 1017,0 0,0
17.06.2018 06:00:00 18,2 12,4 5 3 9 5 SSE 1016,5 0,0
17.06.2018 05:00:00 18,7 12,4 2 1 8 4 S 1015,8 0,0
17.06.2018 04:00:00 20,4 13,2 3 1 14 8 SW 1015,6 0,0
17.06.2018 03:00:00 20,0 13,3 10 5 11 6 SSW 1015,5 0,0
17.06.2018 02:00:00 20,4 12,8 8 4 9 5 S 1015,1 -
17.06.2018 01:00:00 22,8 13,3 6 3 18 10 S 1014,8 0,0
17.06.2018 00:00:00 24,9 13,8 15 8 26 14 SW 1014,4 0,0
16.06.2018 23:00:00 25,5 14,0 19 11 31 17 SW 1013,8 0,0
16.06.2018 22:00:00 27,5 14,5 22 12 32 17 WSW 1012,6 0,0
16.06.2018 21:00:00 31,9 15,8 16 9 28 15 WSW 1011,6 0,0
16.06.2018 20:00:00 34,2 16,6 11 6 23 13 W 1011,1 -
16.06.2018 19:00:00 35,0 16,8 13 7 26 14 WNW 1010,8 0,0
16.06.2018 18:00:00 36,3 17,0 5 3 19 11 WSW 1010,9 0,0
16.06.2018 17:00:00 35,7 17,0 9 5 22 12 W 1011,0 0,0
16.06.2018 16:00:00 35,1 17,4 8 4 22 12 NW 1011,4 0,0
16.06.2018 15:00:00 34,2 17,0 5 3 14 7 NNW 1011,9 0,0
16.06.2018 14:00:00 33,9 17,6 3 2 14 8 WNW 1012,6 -
16.06.2018 13:00:00 31,9 17,0 3 1 12 6 N 1013,1 0,0
16.06.2018 12:00:00 29,9 16,6 4 2 13 7 SE 1013,5 0,0
16.06.2018 11:00:00 27,6 16,2 4 2 12 6 S 1013,8 0,0
16.06.2018 10:00:00 25,8 15,8 4 2 8 5 ESE 1013,8 0,0
16.06.2018 09:00:00 22,3 14,7 0 0 5 3 ESE 1013,7 0,0
16.06.2018 08:00:00 18,7 13,6 4 2 6 3 SSW 1013,6 -
16.06.2018 07:00:00 17,1 11,8 0 0 5 3 WNW 1013,4 0,0
16.06.2018 06:00:00 17,9 12,1 0 0 5 3 N 1012,7 0,0
16.06.2018 05:00:00 18,3 12,1 3 1 6 3 SSE 1012,4 0,0
16.06.2018 04:00:00 18,8 12,1 1 0 6 4 SW 1012,8 0,0
16.06.2018 03:00:00 20,1 12,8 0 0 6 3 S 1012,9 0,0
16.06.2018 02:00:00 21,4 14,0 1 1 14 7 SSE 1012,9 -
16.06.2018 01:00:00 23,5 13,7 5 3 22 12 SE 1012,9 0,0
16.06.2018 00:00:00 25,8 14,2 14 7 29 16 WSW 1012,3 0,0
15.06.2018 23:00:00 26,9 12,5 16 9 26 14 W 1011,8 0,0
15.06.2018 22:00:00 29,3 12,2 14 8 22 12 W 1011,1 0,0
15.06.2018 21:00:00 32,6 13,3 9 5 21 11 WSW 1010,6 0,0
15.06.2018 20:00:00 35,6 13,8 4 2 14 7 W 1010,5 -
15.06.2018 19:00:00 35,7 13,9 4 2 14 8 W 1010,7 0,0
15.06.2018 18:00:00 35,2 13,4 3 2 18 10 NNW 1011,2 0,0
15.06.2018 17:00:00 34,8 13,1 4 2 18 10 NE 1011,5 0,0
15.06.2018 16:00:00 34,3 13,2 4 2 16 9 WNW 1012,3 0,0
15.06.2018 15:00:00 34,0 13,5 3 2 16 8 WNW 1012,9 0,0
15.06.2018 14:00:00 33,1 13,8 3 1 14 8 W 1013,4 -
15.06.2018 13:00:00 31,6 15,2 4 2 14 8 SE 1014,2 0,0
15.06.2018 12:00:00 29,3 15,8 4 2 14 8 ENE 1014,7 0,0
15.06.2018 11:00:00 26,6 14,7 6 3 19 10 ENE 1015,1 0,0
15.06.2018 10:00:00 23,7 15,2 5 3 8 5 ESE 1015,5 0,0
15.06.2018 09:00:00 20,1 13,6 3 2 6 4 SE 1015,5 0,0
15.06.2018 08:00:00 16,7 12,4 4 2 6 3 SSE 1015,0 -
15.06.2018 07:00:00 15,1 11,1 1 1 3 2 SSW 1014,9 0,0
15.06.2018 06:00:00 16,1 10,9 0 0 6 3 NE 1014,6 0,0
15.06.2018 05:00:00 16,9 11,3 5 3 7 4 S 1014,6 0,0
15.06.2018 04:00:00 17,4 11,2 5 3 6 3 SSE 1014,6 0,0
15.06.2018 03:00:00 18,2 11,2 1 1 6 4 SSE 1014,7 0,0
15.06.2018 02:00:00 19,6 12,1 0 0 8 4 ESE 1014,6 -
15.06.2018 01:00:00 21,1 12,2 2 1 28 15 ESE 1014,5 0,0
15.06.2018 00:00:00 23,1 12,4 17 9 32 18 WSW 1013,9 0,0
14.06.2018 23:00:00 24,9 12,8 18 10 29 16 W 1013,6 0,0
14.06.2018 22:00:00 26,3 13,5 15 8 27 14 W 1012,9 0,0
14.06.2018 21:00:00 30,3 13,2 5 3 10 5 W 1012,3 0,0
14.06.2018 20:00:00 32,4 12,6 4 2 11 6 W 1011,8 -
14.06.2018 19:00:00 32,7 12,3 4 2 16 9 NNW 1011,8 0,0
14.06.2018 18:00:00 32,1 11,3 5 3 19 10 N 1012,2 0,0
14.06.2018 17:00:00 31,6 12,8 12 6 19 10 NW 1012,6 0,0
14.06.2018 16:00:00 31,1 13,0 9 5 24 13 NW 1013,2 0,0
14.06.2018 15:00:00 30,8 13,6 4 2 19 11 NW 1013,5 0,0
14.06.2018 14:00:00 29,5 14,5 5 3 12 7 NW 1014,5 -
14.06.2018 13:00:00 27,8 15,1 3 2 10 5 ESE 1015,0 0,0
14.06.2018 12:00:00 25,6 14,4 4 2 13 7 NNE 1015,2 0,0
14.06.2018 11:00:00 23,4 14,7 3 1 9 5 NW 1015,4 0,0
14.06.2018 10:00:00 21,1 14,0 0 0 7 4 SW 1015,8 0,0
14.06.2018 09:00:00 18,6 13,5 3 1 5 3 SSE 1015,9 0,0
14.06.2018 08:00:00 15,7 11,9 2 1 5 3 SE 1015,9 -
14.06.2018 07:00:00 14,4 10,6 1 1 6 3 SSW 1015,9 0,0

tt = Température de l'air
td = dewpoint
ff = Vitesse du vent
fx = gusts
dd = Direction du vent
ppp = reduced air pressure
rr = Quantités de précipitations

stations d'obs. à proximité